createdAt,value
2024-02-19T00:02:22.534Z,7.461890467701342
2024-02-19T00:05:42.764Z,7.38854865771812
2024-02-19T00:09:03.110Z,7.366829645553692
2024-02-19T00:12:23.388Z,7.357189859479867
2024-02-19T00:15:44.651Z,7.29650141568792
2024-02-19T00:19:05.109Z,7.257821675755035
2024-02-19T00:22:25.949Z,7.199948877936243
2024-02-19T00:25:46.535Z,7.124897755872483
2024-02-19T00:29:07.224Z,7.090769190436243
2024-02-19T00:32:27.446Z,7.1154323091442935
2024-02-19T00:35:48.148Z,7.0680198720637595
2024-02-19T00:39:08.838Z,7.029568215184563
2024-02-19T00:42:29.102Z,7.016298762583891
2024-02-19T00:45:48.678Z,7.025790425755034
2024-02-19T00:49:08.866Z,7.041929268036914
2024-02-19T00:52:30.010Z,7.062267984479865
2024-02-19T00:55:52.617Z,7.073218592701343
2024-02-19T00:59:14.962Z,7.053477611157717
2024-02-19T01:02:35.516Z,7.021652160234899
2024-02-19T01:05:55.620Z,7.034226877097317
2024-02-19T01:09:15.637Z,7.059464135906039
2024-02-19T01:12:35.700Z,7.088810822147652
2024-02-19T01:17:48.584Z,7.070751625419464
2024-02-19T01:21:08.750Z,7.074834836409396
2024-02-19T01:24:30.342Z,7.110853607382551
2024-02-19T01:27:51.276Z,7.141449507130873
2024-02-19T01:31:11.836Z,7.120282351090605
2024-02-19T01:34:33.242Z,7.104328334731544
2024-02-19T01:37:54.176Z,7.102984742030201
2024-02-19T01:41:15.676Z,7.092901898070471
2024-02-19T01:44:36.344Z,7.109422189597317
2024-02-19T01:47:56.361Z,7.068713296979865
2024-02-19T01:53:22.031Z,7.051659500838926
2024-02-19T01:56:42.000Z,7.0048618393456366
2024-02-19T02:00:02.919Z,7.022540897651006
2024-02-19T02:03:23.435Z,7.017138999580537
2024-02-19T02:06:43.562Z,6.946226143036912
2024-02-19T02:10:03.970Z,6.883437762164429
2024-02-19T02:13:25.231Z,6.87308619966443
2024-02-19T02:16:46.608Z,6.84149538590604
2024-02-19T02:20:06.464Z,6.838705956375838
2024-02-19T02:23:27.241Z,6.836119704278523
2024-02-19T02:26:47.317Z,6.821041317114093
2024-02-19T02:38:40.924Z,6.775039324664429
2024-02-19T02:42:00.788Z,6.743149643456376
2024-02-19T02:45:21.125Z,6.705188234060402
2024-02-19T02:48:41.236Z,6.715252726510067
2024-02-19T02:52:02.140Z,6.761383179530201
2024-02-19T02:55:23.602Z,6.768156197567114
2024-02-19T02:58:43.769Z,6.730103030620805
2024-02-19T03:02:04.044Z,6.7283806103187915
2024-02-19T03:05:24.522Z,6.724851877097314
2024-02-19T03:08:44.810Z,6.760684511325503
2024-02-19T03:12:04.746Z,6.763492292365772
2024-02-19T03:15:25.115Z,6.740708892617449
2024-02-19T03:20:23.643Z,6.751306889681208
2024-02-19T03:23:43.801Z,6.757087615352349
2024-02-19T03:27:03.767Z,6.767177013422819
2024-02-19T03:31:15.794Z,6.82016175545302
2024-02-19T03:34:37.244Z,6.810071046560402
2024-02-19T03:37:57.044Z,6.792736734479866
2024-02-19T03:41:17.727Z,6.772129299496645
2024-02-19T03:44:37.166Z,6.793418361996643
2024-02-19T03:47:57.740Z,6.856527894295301
2024-02-19T03:51:21.720Z,6.872327233640939
2024-02-19T03:54:43.095Z,6.891292208473153
2024-02-19T03:58:02.711Z,6.931398122902684
2024-02-19T04:01:23.944Z,6.947648385067115
2024-02-19T04:07:24.734Z,6.938563076761743
2024-02-19T04:10:44.970Z,6.935628145973154
2024-02-19T04:14:05.332Z,6.924077181208053
2024-02-19T04:17:26.175Z,6.884957005033555
2024-02-19T04:20:46.373Z,6.929375524328859
2024-02-19T04:24:06.125Z,6.951595270553691
2024-02-19T04:27:28.659Z,6.947515992030201
2024-02-19T04:30:49.033Z,6.935676646392616
2024-02-19T04:35:56.941Z,6.9410300440436234
2024-02-19T04:39:17.240Z,6.961202286073825
2024-02-19T04:42:37.945Z,6.966222734899328
2024-02-19T04:45:58.309Z,7.014812290268456
2024-02-19T04:50:50.666Z,7.0546901216442945
2024-02-19T04:54:11.225Z,7.084060402684564
2024-02-19T04:57:32.302Z,7.097442585989934
2024-02-19T05:01:30.799Z,7.092237311241612
2024-02-19T05:04:51.549Z,7.059993708053691
2024-02-19T05:08:13.336Z,7.096692795721476
2024-02-19T05:11:34.192Z,7.097436031879195
2024-02-19T05:14:55.215Z,7.092486367449665
2024-02-19T05:22:16.445Z,7.106829383389262
2024-02-19T05:25:36.206Z,7.113720375419463
2024-02-19T05:28:56.632Z,7.138551279362416
2024-02-19T05:32:20.253Z,7.209136430369129
2024-02-19T05:35:41.288Z,7.265946151426174
2024-02-19T05:39:01.994Z,7.228371434563758
2024-02-19T05:42:22.461Z,7.188528995385906
2024-02-19T05:46:26.717Z,7.185946675755034
2024-02-19T05:49:46.720Z,7.209128565436242
2024-02-19T05:53:49.850Z,7.2068687080536895
2024-02-19T05:57:09.927Z,7.223938234060405
2024-02-19T06:00:30.792Z,7.230679792365773
2024-02-19T06:03:51.206Z,7.2262295511744945
2024-02-19T06:07:11.542Z,7.236034500838924
2024-02-19T06:10:41.639Z,7.225893980704698
2024-02-19T06:14:02.852Z,7.255755820050335
2024-02-19T06:17:25.849Z,7.27522939387584
2024-02-19T06:25:06.454Z,7.318938758389261
2024-02-19T06:28:26.713Z,7.342153418624161
2024-02-19T06:31:47.776Z,7.336548343120807
2024-02-19T06:36:12.433Z,7.354232644714765
2024-02-19T06:39:33.130Z,7.369624318372482
2024-02-19T06:42:55.229Z,7.395766044463088
2024-02-19T06:46:16.858Z,7.4065829488255055
2024-02-19T06:55:45.072Z,7.493877149748321
2024-02-19T06:59:05.049Z,7.51730940645973
2024-02-19T07:03:08.626Z,7.539990562080537
2024-02-19T07:06:29.293Z,7.574638213087247
2024-02-19T07:09:49.953Z,7.612241768036912
2024-02-19T07:13:10.208Z,7.638913066275166
2024-02-19T07:16:31.106Z,7.648341809983219
2024-02-19T07:19:51.165Z,7.647000838926175
2024-02-19T07:23:11.688Z,7.654437132969799
2024-02-19T07:26:32.040Z,7.633901793204696
2024-02-19T07:29:51.991Z,7.65205930159396
2024-02-19T07:36:06.663Z,7.776410444630872
2024-02-19T07:39:27.423Z,7.777418466862415
2024-02-19T07:42:47.611Z,7.724942323825502
2024-02-19T07:46:09.032Z,7.7036296665268456
2024-02-19T07:49:30.201Z,7.714103135486577
2024-02-19T07:52:50.239Z,7.744409343540268
2024-02-19T07:56:10.374Z,7.728447462248322
2024-02-19T07:59:30.668Z,7.722155515939598
2024-02-19T08:02:50.520Z,7.772454383389261
2024-02-19T08:06:10.995Z,7.769324140100673
2024-02-19T08:09:30.725Z,7.7854616715604035
2024-02-19T08:12:51.813Z,7.81123898909396
2024-02-19T08:16:13.007Z,7.837421350671144
2024-02-19T08:19:34.639Z,7.89293073615772
2024-02-19T08:22:55.443Z,7.934680421560403
2024-02-19T08:26:16.724Z,7.962787070050337
2024-02-19T08:29:37.867Z,8.011166893875838
2024-02-19T08:32:58.259Z,8.141369546979867
2024-02-19T08:36:19.111Z,8.186345165687921
2024-02-19T08:39:40.306Z,8.229274591023488
2024-02-19T08:43:01.376Z,8.28318739513423
2024-02-19T08:46:21.625Z,8.293093278104028
2024-02-19T08:49:41.771Z,8.365154414848993
2024-02-19T08:53:02.003Z,8.727202181208051
2024-02-19T08:57:48.366Z,8.964128041107383
2024-02-19T09:01:09.393Z,9.002556103187919
2024-02-19T09:06:05.414Z,8.932876730285233
2024-02-19T09:33:01.146Z,9.27412699244966
2024-02-19T09:36:21.497Z,9.277047504194629
2024-02-19T09:39:41.610Z,9.279147441275159
2024-02-19T09:43:01.452Z,9.282828229865773
2024-02-19T09:46:21.821Z,9.415218645134235
2024-02-19T09:50:09.280Z,9.482314387583893
2024-02-19T09:53:29.446Z,9.443776216442961
2024-02-19T09:56:49.396Z,9.409205903942961
2024-02-19T10:00:09.362Z,9.416567481124167
2024-02-19T10:03:29.851Z,9.485651740771816
2024-02-19T10:07:33.152Z,9.651747325922823
2024-02-19T10:10:53.051Z,9.704418781459738
2024-02-19T10:14:12.933Z,9.793245333473163
2024-02-19T10:17:34.461Z,9.798542365771821
2024-02-19T10:20:54.567Z,9.826692271392627
2024-02-19T10:24:14.971Z,9.912472472734907
2024-02-19T10:27:35.301Z,9.810624213506715
2024-02-19T10:30:56.012Z,9.743620228607389
2024-02-19T10:34:33.057Z,9.74854629823826
2024-02-19T10:37:53.330Z,9.822086042365777
2024-02-19T10:41:13.373Z,9.883989618288595
2024-02-19T10:44:34.138Z,9.930784658137593
2024-02-19T10:47:53.588Z,9.928821046560403
2024-02-19T10:51:13.682Z,9.856184458892624
2024-02-19T10:57:14.209Z,9.916918781459742
2024-02-19T11:00:34.858Z,10.03876625419463
2024-02-19T11:03:54.894Z,10.063342858640935
2024-02-19T11:07:15.843Z,10.098411283557047
2024-02-19T11:14:51.605Z,10.18015808515101
2024-02-19T11:18:12.179Z,10.208694683305366
2024-02-19T11:21:32.229Z,10.249497955117448
2024-02-19T11:24:52.835Z,10.34548552852349
2024-02-19T11:28:13.220Z,10.386210151006704
2024-02-19T11:31:34.372Z,10.4502202181208
2024-02-19T11:34:54.455Z,10.52987494756711
2024-02-19T11:38:14.785Z,10.50009831166107
2024-02-19T11:41:35.778Z,10.622894819630867
2024-02-19T11:44:56.242Z,10.641272546140938
2024-02-19T11:48:17.481Z,10.657632917365765
2024-02-19T11:51:37.615Z,10.761924549077184
2024-02-19T11:57:30.758Z,10.732259333053687
2024-02-19T12:00:50.801Z,10.675200555788587
2024-02-19T12:04:10.720Z,10.646131763842282
2024-02-19T12:07:30.930Z,10.635524591023485
2024-02-19T12:11:06.529Z,10.652507602768464
2024-02-19T12:16:36.434Z,10.555879037332211
2024-02-19T12:19:57.151Z,10.517654152684557
2024-02-19T12:23:17.634Z,10.492258284395966
2024-02-19T12:37:38.236Z,10.207003722734898
2024-02-19T12:40:57.417Z,10.247257760067107
2024-02-19T12:44:18.148Z,10.251500891359061
2024-02-19T12:47:37.798Z,10.246919567953018
2024-02-19T12:50:58.134Z,10.257575241191274
2024-02-19T12:54:19.817Z,10.241335465604028
2024-02-19T12:57:39.991Z,10.265226510067116
2024-02-19T13:01:04.595Z,10.368407875419463
2024-02-19T13:04:30.157Z,10.573162227348993
2024-02-19T13:07:50.533Z,10.647403261325504
2024-02-19T13:15:27.112Z,10.527128775167784
2024-02-19T13:18:47.757Z,10.441273856963086
2024-02-19T13:22:08.308Z,10.346349360318792
2024-02-19T13:25:29.121Z,10.304510539010067
2024-02-19T13:28:49.023Z,10.255944578439598
2024-02-19T13:32:09.058Z,10.179912961409395
2024-02-19T13:35:29.085Z,10.125720952181208
2024-02-19T13:38:49.139Z,10.114276164010063
2024-02-19T13:42:09.588Z,10.136189177852346
2024-02-19T13:45:29.777Z,10.136912751677848
2024-02-19T13:48:50.453Z,10.1531826761745
2024-02-19T13:52:38.862Z,10.118358064177851
2024-02-19T13:55:58.961Z,10.05057282927853
2024-02-19T13:59:19.254Z,10.084983221476513
2024-02-19T14:02:39.765Z,10.121262846057048
2024-02-19T14:06:00.202Z,10.11874213506711
2024-02-19T14:09:20.299Z,10.014179163171141
2024-02-19T14:12:40.215Z,9.900294934983222
2024-02-19T14:16:01.201Z,9.795555002097316
2024-02-19T14:19:22.310Z,9.794138003355704
2024-02-19T14:22:42.640Z,9.82831506921141
2024-02-19T14:26:03.025Z,9.841187342701343
2024-02-19T14:29:24.097Z,9.847054582634229
2024-02-19T14:33:19.110Z,9.836299286912752
2024-02-19T14:36:39.155Z,9.85292444421141
2024-02-19T14:40:00.024Z,9.894068529781878
2024-02-19T14:43:21.622Z,9.895988884228188
2024-02-19T14:46:51.103Z,9.944552223154362
2024-02-19T14:50:15.176Z,9.976306889681208
2024-02-19T14:53:35.607Z,9.97617711828859
2024-02-19T14:56:55.098Z,10.002910025167786
2024-02-19T15:00:14.823Z,10.013349412751678
2024-02-19T15:03:36.060Z,10.0130308829698
2024-02-19T15:06:56.660Z,9.955631291946311
2024-02-19T15:10:17.754Z,9.878081742869128
2024-02-19T15:13:38.265Z,9.792934668624161
2024-02-19T15:17:26.892Z,9.73007288171141
2024-02-19T15:22:26.669Z,9.70970401635906
2024-02-19T15:25:47.825Z,9.700972630033558
2024-02-19T15:29:08.482Z,9.704260171979866
2024-02-19T15:36:33.924Z,9.68771759647651
2024-02-19T15:39:53.879Z,9.662241768036912
2024-02-19T15:43:13.861Z,9.641086409395974
2024-02-19T15:46:34.549Z,9.646230075503354
2024-02-19T15:58:32.484Z,9.613210465604029
2024-02-19T16:01:54.568Z,9.625388003355706
2024-02-19T16:08:03.114Z,9.654056994546979
2024-02-19T16:17:15.410Z,9.573269714765102
2024-02-19T16:20:35.968Z,9.558022231543623
2024-02-19T16:23:56.064Z,9.550131082214767
2024-02-19T16:27:16.445Z,9.488064964345638
2024-02-19T16:30:36.354Z,9.459129876258391
2024-02-19T16:33:56.605Z,9.441761482802015
2024-02-19T16:37:17.667Z,9.421070155201342
2024-02-19T16:40:38.530Z,9.404763527684565
2024-02-19T16:43:58.769Z,9.376520553691279
2024-02-19T16:47:20.042Z,9.375888737416108
2024-02-19T16:50:40.210Z,9.352833997483222
2024-02-19T16:54:00.976Z,9.329306050755035
2024-02-19T16:57:21.443Z,9.328329488255033
2024-02-19T17:05:18.126Z,9.311529991610739
2024-02-19T17:08:37.952Z,9.307842648909395
2024-02-19T17:11:58.462Z,9.28623243498322
2024-02-19T17:18:18.729Z,9.271055736157717
2024-02-19T17:24:37.900Z,9.218443267617449
2024-02-19T17:27:57.976Z,9.186455274748322
2024-02-19T17:31:18.945Z,9.159772179110737
2024-02-19T17:34:40.343Z,9.131638003355706
2024-02-19T17:38:01.685Z,9.118873217281878
2024-02-19T17:45:38.038Z,9.091522913171142
2024-02-19T17:50:54.653Z,9.050225461409397
2024-02-19T17:54:16.533Z,9.060743498322148
2024-02-19T17:59:45.854Z,9.06518980704698
2024-02-19T18:03:07.353Z,9.073898909395973
2024-02-19T18:06:27.901Z,9.045169620385904
2024-02-19T18:10:16.969Z,9.042958263422818
2024-02-19T18:15:43.586Z,8.988186870805368
2024-02-19T18:19:04.175Z,8.971974622483222
2024-02-19T18:22:25.358Z,8.941619914010067
2024-02-19T18:25:45.617Z,8.937758231963087
2024-02-19T18:29:05.686Z,8.915889786073825
2024-02-19T18:32:26.176Z,8.920422609060402
2024-02-19T18:35:46.693Z,8.932705012583892
2024-02-19T18:39:07.896Z,8.942340866191277
2024-02-19T18:42:29.036Z,8.921450293624162
2024-02-19T18:45:50.045Z,8.908334207214764
2024-02-19T18:49:11.382Z,8.916218802432885
2024-02-19T18:52:32.583Z,8.908245071308723
2024-02-19T18:55:54.211Z,8.897535654362416
2024-02-19T18:59:16.398Z,8.880741401006711
2024-02-19T19:02:37.347Z,8.857682728607381
2024-02-19T19:05:57.336Z,8.852055369127516
2024-02-19T19:09:18.530Z,8.842490299916106
2024-02-19T19:12:38.982Z,8.839872588087248
2024-02-19T19:16:11.847Z,8.819329383389261
2024-02-19T19:25:15.607Z,8.75306339135906
2024-02-19T19:28:43.573Z,8.733613412332213
2024-02-19T19:32:04.063Z,8.715062657298658
2024-02-19T19:37:11.263Z,8.689367921560402
2024-02-19T19:40:31.112Z,8.695560245385906
2024-02-19T19:49:35.080Z,8.696597105704697
2024-02-19T19:52:55.183Z,8.642794410654362
2024-02-19T19:56:15.357Z,8.630192166526847
2024-02-19T19:59:36.737Z,8.669265153104027
2024-02-19T20:02:57.513Z,8.683962091023492
2024-02-19T20:06:18.271Z,8.716239775587248
2024-02-19T20:09:39.172Z,8.697690331375838
2024-02-19T20:12:59.811Z,8.67175178271812
2024-02-19T20:16:44.820Z,8.646285130033558
2024-02-19T20:20:05.752Z,8.650853345218122
2024-02-19T20:23:48.407Z,8.650609532298658
2024-02-19T20:27:27.265Z,8.630736157718122
2024-02-19T20:30:48.013Z,8.630430736157718
2024-02-19T20:34:08.541Z,8.638707267197987
2024-02-19T20:37:29.757Z,8.589041526845639
2024-02-19T20:40:49.863Z,8.584785287332217
2024-02-19T20:44:09.806Z,8.57449140100671
2024-02-19T20:47:30.337Z,8.503088296979866
2024-02-19T20:50:51.151Z,8.467445731963087
2024-02-19T20:54:12.156Z,8.475503355704697
2024-02-19T20:57:33.443Z,8.508871644295303
2024-02-19T21:00:53.794Z,8.508770710989932
2024-02-19T21:04:13.792Z,8.485131344379194
2024-02-19T21:07:37.179Z,8.50470454068792
2024-02-19T21:10:57.983Z,8.479551174496644
2024-02-19T21:14:18.605Z,8.476528418624161
2024-02-19T21:17:54.413Z,8.416895186661074
2024-02-19T21:24:05.058Z,8.380623427013422
2024-02-19T21:27:24.987Z,8.378089607802012
2024-02-19T21:30:44.948Z,8.350279205117447
2024-02-19T21:34:06.158Z,8.340689230285236
2024-02-19T21:37:28.302Z,8.331084836409397
2024-02-19T21:40:48.937Z,8.301520553691278
2024-02-19T21:44:09.708Z,8.259048605285235
2024-02-19T21:49:28.884Z,8.154901164010067
2024-02-19T21:52:50.283Z,8.156626205956375
2024-02-19T21:56:11.910Z,8.185213926174498
2024-02-19T21:59:33.588Z,8.15989408557047
2024-02-19T22:02:55.215Z,8.15786231124161
2024-02-19T22:06:16.621Z,8.14491663171141
2024-02-19T22:09:36.742Z,8.126677852348994
2024-02-19T22:12:57.271Z,8.10108273909396
2024-02-19T22:28:51.572Z,7.977486629614094
2024-02-19T22:40:44.275Z,7.880307518875841
2024-02-19T22:45:49.022Z,7.897398018036912
2024-02-19T22:49:09.049Z,7.878831533137585
2024-02-19T22:52:30.174Z,7.836221948406041
2024-02-19T22:55:49.983Z,7.801711933724833
2024-02-19T22:59:14.748Z,7.811849832214765
2024-02-19T23:02:42.180Z,7.824349832214765
2024-02-19T23:11:34.510Z,7.7493013317953015
2024-02-19T23:14:54.786Z,7.646656092701344
2024-02-19T23:18:15.753Z,7.649309196728188
2024-02-19T23:21:36.453Z,7.62821413590604
2024-02-19T23:24:56.803Z,7.621469955956376
2024-02-19T23:31:38.041Z,7.658804792365774
2024-02-19T23:38:02.442Z,7.62542994966443
2024-02-19T23:41:22.083Z,7.643107697147651
2024-02-19T23:44:42.054Z,7.661322881711409
2024-02-19T23:48:02.228Z,7.641357749580537
2024-02-19T23:51:23.203Z,7.65316956795302
2024-02-19T23:54:43.876Z,7.598757340604027
2024-02-19T23:58:04.163Z,7.606776950503356
